Time;durP1;ratioP1;P1;durP2;ratioP2;P2;SDS_P1;SDS_P2;PMS_P1;PMS_P2;Temp;Humidity;BMP_temperature;BMP_pressure;BME280_temperature;BME280_humidity;BME280_pressure;Samples;Min_cycle;Max_cycle;Signal;HPM_P1;HPM_P2
2023/02/16 00:00:43;;;;;;;23.73;14.73;;;0.40;99.90;;;;;;7397192;19;20394;-81
2023/02/16 00:03:17;;;;;;;24.25;15.52;;;0.40;99.90;;;;;;7397752;19;21279;-80
2023/02/16 00:05:42;;;;;;;26.83;15.73;;;0.40;99.90;;;;;;7395495;19;21056;-79
2023/02/16 00:08:08;;;;;;;24.43;14.80;;;0.30;99.90;;;;;;7397334;19;20324;-81
2023/02/16 00:10:35;;;;;;;21.50;13.37;;;0.30;99.90;;;;;;7397675;19;20386;-83
2023/02/16 00:15:45;;;;;;;27.27;14.93;;;0.30;99.90;;;;;;7292802;19;2004345;-82
2023/02/16 00:18:18;;;;;;;20.23;13.83;;;0.30;99.90;;;;;;7398752;19;20308;-78
2023/02/16 00:20:46;;;;;;;18.95;12.50;;;0.20;99.90;;;;;;7395922;19;20321;-81
2023/02/16 00:23:11;;;;;;;21.83;13.13;;;0.20;99.90;;;;;;7396123;19;20359;-83
2023/02/16 00:25:37;;;;;;;19.75;12.55;;;0.20;99.90;;;;;;7395322;19;20316;-82
2023/02/16 00:28:04;;;;;;;24.00;13.93;;;0.20;99.90;;;;;;7399059;19;20333;-80
2023/02/16 00:30:30;;;;;;;26.65;13.35;;;0.20;99.90;;;;;;7397390;19;20312;-79
2023/02/16 00:32:56;;;;;;;21.83;12.98;;;0.20;99.90;;;;;;7398787;19;20332;-81
2023/02/16 00:35:21;;;;;;;21.35;13.63;;;0.20;99.90;;;;;;7395652;19;20321;-86
2023/02/16 00:37:47;;;;;;;17.07;11.83;;;0.20;99.90;;;;;;7396579;19;20308;-79
2023/02/16 00:40:16;;;;;;;19.17;12.50;;;0.20;99.90;;;;;;7397976;19;21079;-81
2023/02/16 00:42:42;;;;;;;20.98;12.88;;;0.20;99.90;;;;;;7396442;19;20337;-83
2023/02/16 00:45:16;;;;;;;20.58;12.82;;;0.20;99.90;;;;;;7398843;19;20324;-82
2023/02/16 00:47:42;;;;;;;20.53;13.93;;;0.20;99.90;;;;;;7397663;19;20384;-83
2023/02/16 00:50:16;;;;;;;19.20;12.23;;;0.20;99.90;;;;;;7397625;19;20853;-81
2023/02/16 00:52:45;;;;;;;18.80;11.85;;;0.20;99.90;;;;;;7397011;19;20336;-82
2023/02/16 00:55:12;;;;;;;23.40;13.03;;;0.20;99.90;;;;;;7395023;19;20316;-80
2023/02/16 00:57:55;;;;;;;19.52;12.93;;;0.10;99.90;;;;;;7393272;19;20335;-80
2023/02/16 01:00:45;;;;;;;19.53;11.97;;;0.10;99.90;;;;;;7292119;19;2004295;-78
2023/02/16 01:03:14;;;;;;;19.90;13.10;;;0.00;99.90;;;;;;7395131;19;20329;-78
2023/02/16 01:05:39;;;;;;;21.67;13.03;;;0.00;99.90;;;;;;7394430;19;20329;-80
2023/02/16 01:11:08;;;;;;;18.42;12.10;;;0.00;99.90;;;;;;7283308;19;2004259;-79
2023/02/16 01:13:53;;;;;;;20.45;12.55;;;0.00;99.90;;;;;;7405447;19;20349;-80
2023/02/16 01:16:26;;;;;;;17.85;11.50;;;0.00;99.90;;;;;;7292668;19;2004583;-78
2023/02/16 01:18:52;;;;;;;18.25;11.98;;;0.00;99.90;;;;;;7395300;19;20340;-79
2023/02/16 01:21:20;;;;;;;21.30;12.10;;;0.00;99.90;;;;;;7396466;19;20336;-79
2023/02/16 01:23:46;;;;;;;21.03;11.87;;;0.00;99.90;;;;;;7393307;19;20325;-77
2023/02/16 01:26:16;;;;;;;22.63;13.43;;;0.10;99.90;;;;;;7394222;19;20674;-80
2023/02/16 01:28:44;;;;;;;22.23;13.15;;;0.00;99.90;;;;;;7394340;19;20312;-80
2023/02/16 01:31:10;;;;;;;25.38;13.68;;;-0.10;99.90;;;;;;7390572;19;20327;-82
2023/02/16 01:33:39;;;;;;;22.40;12.73;;;-0.20;99.90;;;;;;7392353;19;20317;-80
2023/02/16 01:36:06;;;;;;;24.67;14.13;;;-0.20;99.90;;;;;;7390769;19;20333;-79
2023/02/16 01:38:32;;;;;;;20.88;13.27;;;-0.20;99.90;;;;;;7389802;19;20332;-80
2023/02/16 01:41:21;;;;;;;19.05;11.63;;;-0.20;99.90;;;;;;7391112;19;20305;-80
2023/02/16 01:44:04;;;;;;;16.45;10.57;;;-0.20;99.90;;;;;;7285113;19;2004650;-81
2023/02/16 01:47:15;;;;;;;20.30;13.23;;;-0.20;99.90;;;;;;7387917;19;21234;-79
2023/02/16 01:49:40;;;;;;;20.95;12.18;;;-0.20;99.90;;;;;;7288555;19;2004310;-79
2023/02/16 01:52:24;;;;;;;20.42;11.98;;;-0.20;99.90;;;;;;7388272;19;20320;-80
2023/02/16 01:55:01;;;;;;;19.77;12.57;;;-0.30;99.90;;;;;;7285813;19;2004313;-77
2023/02/16 01:57:36;;;;;;;18.83;12.13;;;-0.30;99.90;;;;;;7387923;19;20324;-80
2023/02/16 02:00:42;;;;;;;18.80;11.93;;;-0.30;99.90;;;;;;7390588;19;20861;-80
2023/02/16 02:05:53;;;;;;;20.95;13.18;;;-0.30;99.90;;;;;;7285582;19;2004256;-80
2023/02/16 02:08:39;;;;;;;16.87;11.00;;;-0.30;99.90;;;;;;7388763;19;20320;-81
2023/02/16 02:11:10;;;;;;;20.13;12.77;;;-0.20;99.90;;;;;;7392070;19;20309;-81
2023/02/16 02:13:51;;;;;;;22.90;13.35;;;-0.20;99.90;;;;;;7393669;19;20396;-82
2023/02/16 02:16:19;;;;;;;22.88;13.50;;;-0.20;99.90;;;;;;7287198;19;2004200;-79
2023/02/16 02:18:46;;;;;;;20.88;12.30;;;-0.20;99.90;;;;;;7392989;19;20316;-81
2023/02/16 02:24:49;;;;;;;20.83;12.77;;;-0.20;99.90;;;;;;7188414;19;2004404;-79
2023/02/16 02:27:23;;;;;;;22.25;12.48;;;-0.10;99.90;;;;;;7289722;19;2004322;-78
2023/02/16 02:30:23;;;;;;;21.45;12.93;;;-0.10;99.90;;;;;;7394523;19;20380;-85
2023/02/16 02:32:55;;;;;;;19.48;11.70;;;-0.10;99.90;;;;;;7187734;19;2004576;-80
2023/02/16 02:35:43;;;;;;;20.85;12.63;;;-0.10;99.90;;;;;;7389089;19;20328;-81
2023/02/16 02:38:25;;;;;;;17.65;12.63;;;-0.10;99.90;;;;;;7394733;19;20329;-79
2023/02/16 02:41:22;;;;;;;18.92;11.45;;;0.00;99.90;;;;;;7290704;19;2004397;-79
2023/02/16 02:43:55;;;;;;;20.77;11.70;;;0.00;99.90;;;;;;7288037;19;2004489;-82
2023/02/16 02:46:26;;;;;;;18.67;11.77;;;0.00;99.90;;;;;;7389116;19;20345;-80
2023/02/16 02:48:52;;;;;;;18.37;12.00;;;0.00;99.90;;;;;;7390700;19;20333;-78
2023/02/16 02:51:29;;;;;;;19.53;12.30;;;0.00;99.90;;;;;;7391779;19;20329;-80
2023/02/16 03:02:21;;;;;;;18.30;11.05;;;0.10;99.90;;;;;;7290828;19;2004295;-82
2023/02/16 03:04:47;;;;;;;16.33;10.27;;;0.10;99.90;;;;;;7388942;19;20858;-80
2023/02/16 03:07:13;;;;;;;18.40;11.00;;;0.20;99.90;;;;;;7389525;19;20325;-82
2023/02/16 03:09:38;;;;;;;20.27;11.63;;;0.20;99.90;;;;;;7387579;19;20313;-78
2023/02/16 03:14:53;;;;;;;16.48;10.50;;;0.40;99.90;;;;;;7286186;19;2004212;-80
2023/02/16 03:31:09;;;;;;;15.82;10.63;;;0.30;99.90;;;;;;7387002;19;20312;-81
2023/02/16 03:33:36;;;;;;;17.02;10.70;;;0.20;99.90;;;;;;7391135;19;20381;-79
2023/02/16 03:36:02;;;;;;;16.45;10.55;;;0.20;99.90;;;;;;7389407;19;20366;-79
2023/02/16 03:38:27;;;;;;;15.27;10.90;;;0.20;99.90;;;;;;7387380;19;20981;-79
2023/02/16 03:40:53;;;;;;;15.53;10.10;;;0.20;99.90;;;;;;7389159;19;20336;-80
2023/02/16 03:43:18;;;;;;;17.67;9.88;;;0.20;99.90;;;;;;7389332;19;20328;-78
2023/02/16 03:45:44;;;;;;;16.20;10.53;;;0.20;99.90;;;;;;7388936;19;20964;-80
2023/02/16 03:48:10;;;;;;;14.05;9.77;;;0.20;99.90;;;;;;7388663;19;20351;-82
2023/02/16 03:50:35;;;;;;;16.83;10.63;;;0.30;99.90;;;;;;7390053;19;20324;-82
2023/02/16 03:53:07;;;;;;;19.10;10.70;;;0.30;99.90;;;;;;7394601;19;20344;-81
2023/02/16 03:55:41;;;;;;;15.35;9.55;;;0.20;99.90;;;;;;7388150;19;20340;-79
2023/02/16 03:58:07;;;;;;;17.63;10.50;;;0.20;99.90;;;;;;7389582;19;20332;-81
2023/02/16 04:00:33;;;;;;;16.73;10.77;;;0.20;99.90;;;;;;7387879;19;20309;-84
2023/02/16 04:02:59;;;;;;;15.77;10.33;;;0.20;99.90;;;;;;7390588;19;20345;-85
2023/02/16 04:05:24;;;;;;;18.88;11.65;;;0.10;99.90;;;;;;7388439;19;21098;-85
2023/02/16 04:07:50;;;;;;;14.30;10.47;;;0.20;99.90;;;;;;7390465;19;20328;-77
2023/02/16 04:10:15;;;;;;;19.17;11.60;;;0.20;99.90;;;;;;7390137;19;20319;-80
2023/02/16 04:12:41;;;;;;;37.75;21.80;;;0.20;99.90;;;;;;7387273;19;20308;-80
2023/02/16 04:15:09;;;;;;;28.47;16.93;;;0.20;99.90;;;;;;7389950;19;20300;-85
2023/02/16 04:17:35;;;;;;;27.17;16.63;;;0.20;99.90;;;;;;7386989;19;20355;-84
2023/02/16 04:20:00;;;;;;;19.10;11.20;;;0.20;99.90;;;;;;7385165;19;20321;-79
2023/02/16 04:22:26;;;;;;;17.83;10.00;;;0.20;99.90;;;;;;7381261;19;20324;-78
2023/02/16 04:24:52;;;;;;;17.85;10.63;;;0.20;99.90;;;;;;7380218;19;20323;-78
2023/02/16 04:27:18;;;;;;;15.97;10.17;;;0.20;99.90;;;;;;7381956;19;20995;-80
2023/02/16 04:29:43;;;;;;;14.40;9.80;;;0.20;99.90;;;;;;7388544;19;20312;-82
2023/02/16 04:32:09;;;;;;;13.98;8.93;;;0.10;99.90;;;;;;7388270;19;20324;-79
2023/02/16 04:34:36;;;;;;;14.80;9.87;;;0.20;99.90;;;;;;7390785;19;20320;-78
2023/02/16 04:37:01;;;;;;;17.70;10.55;;;0.20;99.90;;;;;;7388300;19;20304;-79
2023/02/16 04:39:27;;;;;;;13.55;9.57;;;0.10;99.90;;;;;;7386627;19;20324;-79
2023/02/16 04:41:53;;;;;;;14.93;10.10;;;0.10;99.90;;;;;;7387851;19;21054;-79
2023/02/16 04:44:19;;;;;;;14.15;9.10;;;0.10;99.90;;;;;;7387146;19;20663;-80
2023/02/16 04:46:46;;;;;;;14.20;9.18;;;0.10;99.90;;;;;;7389533;19;20363;-81
2023/02/16 04:49:12;;;;;;;13.90;9.30;;;0.10;99.90;;;;;;7386070;19;20348;-77
2023/02/16 04:51:38;;;;;;;14.05;9.70;;;0.00;99.90;;;;;;7385483;19;20856;-78
2023/02/16 04:54:05;;;;;;;15.83;9.80;;;0.00;99.90;;;;;;7383511;19;20339;-79
2023/02/16 04:56:31;;;;;;;14.98;9.82;;;0.00;99.90;;;;;;7385031;19;20397;-79
2023/02/16 04:58:56;;;;;;;14.23;9.13;;;0.00;99.90;;;;;;7382330;19;20338;-78
2023/02/16 05:01:24;;;;;;;13.47;9.27;;;0.00;99.90;;;;;;7385213;19;20408;-77
2023/02/16 05:03:50;;;;;;;15.10;9.18;;;-0.10;99.90;;;;;;7388182;19;20349;-80
2023/02/16 05:06:15;;;;;;;15.25;9.65;;;-0.10;99.90;;;;;;7388223;19;20697;-81
2023/02/16 05:08:41;;;;;;;13.10;9.10;;;-0.10;99.90;;;;;;7402061;19;20328;-84
2023/02/16 05:16:36;;;;;;;14.80;9.27;;;-0.10;99.90;;;;;;7394594;19;20309;-79
2023/02/16 05:19:01;;;;;;;12.10;8.57;;;-0.10;99.90;;;;;;7394164;19;20316;-83
2023/02/16 05:21:30;;;;;;;12.57;8.70;;;-0.10;99.90;;;;;;7392741;19;20313;-80
2023/02/16 05:23:56;;;;;;;13.70;9.25;;;-0.10;99.90;;;;;;7392009;19;20932;-81
2023/02/16 05:26:23;;;;;;;12.50;9.10;;;-0.10;99.90;;;;;;7388723;19;20333;-85
2023/02/16 05:28:49;;;;;;;12.97;9.20;;;-0.20;99.90;;;;;;7389714;19;20312;-78
2023/02/16 05:31:14;;;;;;;13.35;9.18;;;-0.10;99.90;;;;;;7386413;19;20317;-79
2023/02/16 05:33:40;;;;;;;12.65;8.30;;;-0.20;99.90;;;;;;7390103;19;20323;-79
2023/02/16 05:36:06;;;;;;;11.40;8.37;;;-0.10;99.90;;;;;;7386034;19;20341;-80
2023/02/16 05:38:31;;;;;;;11.07;8.45;;;-0.20;99.90;;;;;;7386210;19;21141;-79
2023/02/16 05:40:58;;;;;;;14.17;9.17;;;-0.10;99.90;;;;;;7383877;19;20337;-79
2023/02/16 05:43:24;;;;;;;11.55;9.02;;;-0.10;99.90;;;;;;7384176;19;20333;-79
2023/02/16 05:45:49;;;;;;;11.68;8.77;;;-0.10;99.90;;;;;;7385407;19;20316;-81
2023/02/16 05:48:15;;;;;;;12.87;9.30;;;-0.10;99.90;;;;;;7396834;19;20309;-82
2023/02/16 05:50:40;;;;;;;13.27;9.38;;;-0.20;99.90;;;;;;7394736;19;20316;-79
2023/02/16 05:53:06;;;;;;;13.50;9.07;;;-0.20;99.90;;;;;;7382023;19;20781;-79
2023/02/16 05:55:32;;;;;;;13.63;8.85;;;-0.20;99.90;;;;;;7382301;19;20317;-87
2023/02/16 05:57:57;;;;;;;13.03;9.20;;;-0.20;99.90;;;;;;7385262;19;20324;-81
2023/02/16 06:00:23;;;;;;;13.88;9.45;;;-0.10;99.90;;;;;;7384398;19;20333;-83
2023/02/16 06:02:48;;;;;;;13.53;9.80;;;-0.20;99.90;;;;;;7387806;19;20340;-80
2023/02/16 06:05:14;;;;;;;14.15;9.60;;;-0.20;99.90;;;;;;7386292;19;20380;-80
2023/02/16 06:07:40;;;;;;;17.27;10.43;;;-0.20;99.90;;;;;;7384924;19;20313;-79
2023/02/16 06:10:05;;;;;;;13.98;9.40;;;-0.20;99.90;;;;;;7386411;19;20837;-80
2023/02/16 06:12:33;;;;;;;12.93;9.05;;;-0.20;99.90;;;;;;7388084;19;20354;-79
2023/02/16 06:14:59;;;;;;;11.95;8.57;;;-0.20;99.90;;;;;;7383388;19;20348;-79
2023/02/16 06:17:25;;;;;;;11.13;8.13;;;-0.20;99.90;;;;;;7384560;19;20518;-80
2023/02/16 06:19:50;;;;;;;12.55;9.38;;;-0.20;99.90;;;;;;7384485;19;20321;-84
2023/02/16 06:22:16;;;;;;;13.67;9.50;;;-0.20;99.90;;;;;;7386335;19;20311;-80
2023/02/16 06:24:41;;;;;;;13.50;9.50;;;-0.10;99.90;;;;;;7385613;19;20320;-81
2023/02/16 06:27:07;;;;;;;14.07;9.57;;;-0.10;99.90;;;;;;7384431;19;21308;-80
2023/02/16 06:29:33;;;;;;;11.80;8.60;;;-0.10;99.90;;;;;;7385980;19;20316;-81
2023/02/16 06:31:59;;;;;;;10.70;8.17;;;-0.10;99.90;;;;;;7385432;19;20324;-79
2023/02/16 06:34:25;;;;;;;12.33;8.93;;;0.00;99.90;;;;;;7385527;19;20327;-80
2023/02/16 06:36:51;;;;;;;14.40;9.10;;;0.00;99.90;;;;;;7386570;19;20301;-83
2023/02/16 06:39:17;;;;;;;11.32;8.93;;;0.00;99.90;;;;;;7385233;19;20320;-82
2023/02/16 06:41:43;;;;;;;12.80;9.20;;;0.00;99.90;;;;;;7387951;19;20312;-80
2023/02/16 06:44:12;;;;;;;12.63;9.13;;;0.00;99.90;;;;;;7384568;19;20850;-82
2023/02/16 06:46:39;;;;;;;11.75;9.00;;;0.00;99.90;;;;;;7383017;19;20344;-81
2023/02/16 06:49:05;;;;;;;12.73;9.35;;;0.10;99.90;;;;;;7386132;19;20335;-80
2023/02/16 06:51:30;;;;;;;11.80;8.37;;;0.10;99.90;;;;;;7385682;19;20308;-83
2023/02/16 06:53:56;;;;;;;11.25;9.23;;;0.10;99.90;;;;;;7386435;19;20328;-79
2023/02/16 06:56:22;;;;;;;15.97;10.50;;;0.10;99.90;;;;;;7383898;19;20332;-80
2023/02/16 06:58:47;;;;;;;12.10;9.55;;;0.10;99.90;;;;;;7385729;19;20675;-82
2023/02/16 07:01:13;;;;;;;14.17;10.90;;;0.10;99.90;;;;;;7386408;19;20963;-80
2023/02/16 07:03:38;;;;;;;14.45;10.98;;;0.10;99.90;;;;;;7384429;19;20320;-81
2023/02/16 07:06:04;;;;;;;15.53;10.63;;;0.20;99.90;;;;;;7383493;19;20344;-83
2023/02/16 07:08:30;;;;;;;14.70;10.70;;;0.20;99.90;;;;;;7387030;19;21295;-80
2023/02/16 07:10:56;;;;;;;15.23;11.32;;;0.20;99.90;;;;;;7385167;19;20336;-79
2023/02/16 07:13:21;;;;;;;14.77;11.05;;;0.30;99.90;;;;;;7385143;19;20412;-81
2023/02/16 07:15:47;;;;;;;17.60;10.87;;;0.30;99.90;;;;;;7382941;19;20344;-80
2023/02/16 07:18:12;;;;;;;13.98;10.38;;;0.30;99.90;;;;;;7384616;19;20860;-81
2023/02/16 07:20:38;;;;;;;14.27;10.43;;;0.40;99.90;;;;;;7382322;19;20324;-82
2023/02/16 07:23:04;;;;;;;16.33;10.93;;;0.40;99.90;;;;;;7411867;19;20354;-87
2023/02/16 07:50:33;;;;;;;13.77;9.38;;;1.00;99.90;;;;;;7414586;19;20348;-87
2023/02/16 08:18:19;;;;;;;19.90;13.80;;;1.80;99.90;;;;;;7424503;19;20361;-89
2023/02/16 08:20:47;;;;;;;17.98;12.43;;;1.90;99.90;;;;;;7393419;19;20402;-87
2023/02/16 08:23:13;;;;;;;16.17;11.73;;;2.00;99.90;;;;;;7409523;19;20384;-88
2023/02/16 08:25:38;;;;;;;15.85;11.57;;;2.00;99.90;;;;;;7410024;19;20817;-91
2023/02/16 08:28:05;;;;;;;16.43;11.90;;;2.10;99.90;;;;;;7411904;19;20342;-84
2023/02/16 08:30:33;;;;;;;15.93;11.53;;;2.10;99.90;;;;;;7409114;19;20312;-89
2023/02/16 08:33:01;;;;;;;19.45;12.18;;;2.30;99.90;;;;;;7397733;19;20431;-77
2023/02/16 08:35:29;;;;;;;16.25;11.57;;;2.30;99.90;;;;;;7396647;19;20319;-81
2023/02/16 08:37:55;;;;;;;17.63;12.98;;;2.40;99.90;;;;;;7396722;19;20328;-81
2023/02/16 08:40:23;;;;;;;17.80;12.10;;;2.40;99.90;;;;;;7401449;19;20336;-87
2023/02/16 08:42:49;;;;;;;17.67;12.63;;;2.50;99.90;;;;;;7401085;19;20323;-90
2023/02/16 08:45:15;;;;;;;18.63;13.55;;;2.60;99.90;;;;;;7405832;19;20327;-85
2023/02/16 08:47:40;;;;;;;16.97;12.53;;;2.70;99.90;;;;;;7400149;19;20313;-84
2023/02/16 08:50:06;;;;;;;17.50;12.25;;;2.80;99.90;;;;;;7404689;19;20338;-87
2023/02/16 08:52:32;;;;;;;16.73;12.57;;;2.90;99.90;;;;;;7405683;19;20320;-89
2023/02/16 08:54:57;;;;;;;17.17;12.07;;;3.00;99.90;;;;;;7398547;19;20332;-84
2023/02/16 08:57:23;;;;;;;15.88;12.18;;;3.20;99.90;;;;;;7399500;19;20337;-84
2023/02/16 09:00:32;;;;;;;17.90;12.40;;;3.20;99.90;;;;;;7403486;19;20324;-88
2023/02/16 09:02:34;;;;;;;17.80;12.57;;;3.30;99.90;;;;;;7399107;19;20352;-81
2023/02/16 09:05:00;;;;;;;21.13;13.73;;;3.50;99.90;;;;;;7399246;19;20319;-80
2023/02/16 09:07:26;;;;;;;16.60;12.38;;;3.50;99.90;;;;;;7401764;19;20813;-88
2023/02/16 09:09:51;;;;;;;17.30;13.10;;;3.60;99.90;;;;;;7399474;19;20305;-82
2023/02/16 09:12:17;;;;;;;17.05;13.18;;;3.80;99.90;;;;;;7396760;19;20317;-77
2023/02/16 09:14:43;;;;;;;22.20;15.10;;;3.90;99.90;;;;;;7384059;19;20389;-82
2023/02/16 09:17:08;;;;;;;25.73;18.00;;;4.00;99.90;;;;;;7381017;19;20376;-82
2023/02/16 09:19:34;;;;;;;19.35;14.02;;;4.10;99.90;;;;;;7383172;19;20328;-78
2023/02/16 09:21:59;;;;;;;17.97;13.03;;;4.30;99.90;;;;;;7383371;19;20313;-80
2023/02/16 09:24:25;;;;;;;20.90;15.02;;;4.30;99.90;;;;;;7381386;19;20395;-78
2023/02/16 09:26:51;;;;;;;22.27;14.97;;;4.50;99.90;;;;;;7380584;19;20321;-80
2023/02/16 09:29:17;;;;;;;19.77;14.00;;;4.60;99.90;;;;;;7383802;19;20312;-78
2023/02/16 09:31:44;;;;;;;18.90;13.55;;;4.70;99.90;;;;;;7383182;19;20329;-79
2023/02/16 09:34:12;;;;;;;18.10;13.57;;;4.80;99.90;;;;;;7382541;19;20301;-81
2023/02/16 09:36:38;;;;;;;18.55;13.95;;;4.90;99.90;;;;;;7380102;19;20351;-78
2023/02/16 09:39:03;;;;;;;20.00;13.13;;;5.00;99.90;;;;;;7383563;19;20312;-81
2023/02/16 09:41:39;;;;;;;14.73;12.35;;;5.10;99.90;;;;;;7384866;19;20335;-80
2023/02/16 09:44:28;;;;;;;18.60;12.80;;;5.10;99.90;;;;;;7383187;19;20384;-79
2023/02/16 09:46:54;;;;;;;19.35;13.60;;;5.30;99.90;;;;;;7278989;19;2004467;-80
2023/02/16 09:49:28;;;;;;;18.45;13.77;;;5.50;99.90;;;;;;7382338;19;20324;-80
2023/02/16 09:52:11;;;;;;;17.35;12.60;;;5.60;99.90;;;;;;7383942;19;20813;-78
2023/02/16 09:54:45;;;;;;;18.58;13.35;;;5.70;99.90;;;;;;7382405;19;21545;-81
2023/02/16 09:57:33;;;;;;;18.98;13.25;;;5.80;99.90;;;;;;7380721;19;20320;-81
2023/02/16 10:00:13;;;;;;;18.93;12.77;;;6.00;99.90;;;;;;7279209;19;2004606;-83
2023/02/16 10:02:54;;;;;;;16.92;12.77;;;6.10;99.90;;;;;;7381781;19;20325;-78
2023/02/16 10:05:30;;;;;;;17.95;12.23;;;6.20;99.90;;;;;;7358980;19;20431;-80
2023/02/16 10:08:06;;;;;;;16.98;13.02;;;6.30;99.90;;;;;;7381100;19;20879;-77
2023/02/16 10:10:55;;;;;;;18.47;12.27;;;6.40;99.90;;;;;;7382910;19;20329;-80
2023/02/16 10:13:31;;;;;;;18.05;13.10;;;6.40;99.90;;;;;;7280511;19;2010615;-80
2023/02/16 10:15:57;;;;;;;21.70;13.70;;;6.60;99.90;;;;;;7380045;19;20317;-79
2023/02/16 10:18:28;;;;;;;18.93;12.30;;;6.70;99.90;;;;;;7382409;19;20328;-78
2023/02/16 10:20:55;;;;;;;17.27;12.80;;;6.80;99.90;;;;;;7381917;19;20383;-83
2023/02/16 10:23:51;;;;;;;20.45;12.98;;;6.90;99.90;;;;;;7380066;19;20333;-79
2023/02/16 10:26:31;;;;;;;21.65;12.85;;;7.10;99.90;;;;;;7378151;19;20712;-79
2023/02/16 10:28:59;;;;;;;19.40;13.13;;;7.10;99.90;;;;;;7280045;19;2004461;-80
2023/02/16 10:31:48;;;;;;;18.83;12.00;;;7.20;99.90;;;;;;7381948;19;20334;-79
2023/02/16 10:34:26;;;;;;;18.73;12.32;;;7.20;99.90;;;;;;7380640;19;20321;-80
2023/02/16 10:37:08;;;;;;;19.15;13.30;;;7.40;99.90;;;;;;7277713;19;2004812;-78
2023/02/16 10:39:42;;;;;;;19.10;13.25;;;7.50;99.90;;;;;;7382784;19;20896;-79
2023/02/16 10:42:13;;;;;;;16.80;12.13;;;7.60;99.90;;;;;;7385260;19;20325;-78
2023/02/16 10:44:41;;;;;;;17.25;12.60;;;7.70;99.90;;;;;;7381918;19;20849;-79
2023/02/16 10:47:19;;;;;;;18.93;12.63;;;7.80;99.90;;;;;;7380965;19;20334;-78
2023/02/16 10:49:46;;;;;;;15.73;10.77;;;7.90;99.90;;;;;;7382478;19;20312;-84
2023/02/16 10:52:12;;;;;;;19.33;11.60;;;8.00;99.90;;;;;;7391578;19;20341;-84
2023/02/16 10:54:38;;;;;;;15.43;11.40;;;8.20;99.90;;;;;;7388522;19;20329;-80
2023/02/16 10:57:05;;;;;;;17.27;11.40;;;8.10;99.90;;;;;;7389049;19;20328;-83
2023/02/16 10:59:44;;;;;;;14.95;11.32;;;8.40;99.90;;;;;;7395019;19;20406;-81
2023/02/16 11:02:22;;;;;;;19.27;12.20;;;8.30;99.90;;;;;;7390476;19;20301;-79
2023/02/16 11:04:51;;;;;;;18.10;12.25;;;8.40;99.90;;;;;;7284671;19;2004694;-80
2023/02/16 11:07:25;;;;;;;17.58;11.63;;;8.50;99.90;;;;;;7386579;19;22643;-80
2023/02/16 11:09:56;;;;;;;16.17;12.13;;;8.60;99.90;;;;;;7390078;19;20332;-80
2023/02/16 11:12:39;;;;;;;16.20;11.55;;;8.80;99.90;;;;;;7384847;19;20357;-81
2023/02/16 11:15:15;;;;;;;19.38;11.77;;;8.90;99.90;;;;;;7396032;19;20353;-86
2023/02/16 11:18:07;;;;;;;16.17;11.35;;;9.00;99.90;;;;;;7386701;19;20324;-79
2023/02/16 11:20:51;;;;;;;17.17;11.30;;;9.10;99.90;;;;;;7289684;19;2004280;-80
2023/02/16 11:23:32;;;;;;;16.92;11.77;;;9.30;99.90;;;;;;7394199;19;20328;-78
2023/02/16 11:26:04;;;;;;;16.10;11.93;;;9.50;99.90;;;;;;7281802;19;2004340;-80
2023/02/16 11:28:41;;;;;;;16.83;12.00;;;9.50;99.90;;;;;;7385415;19;21182;-78
2023/02/16 11:31:10;;;;;;;17.25;11.68;;;9.50;99.90;;;;;;7384131;19;20317;-80
2023/02/16 11:33:36;;;;;;;16.60;11.40;;;9.60;99.90;;;;;;7384370;19;20336;-80
2023/02/16 11:36:04;;;;;;;18.38;12.23;;;9.70;99.90;;;;;;7385869;19;20387;-80
2023/02/16 11:38:34;;;;;;;18.63;13.20;;;9.80;99.90;;;;;;7392377;19;20376;-80
2023/02/16 11:41:03;;;;;;;19.85;12.82;;;10.10;99.90;;;;;;7394761;19;20333;-80
2023/02/16 11:43:31;;;;;;;15.90;10.93;;;10.30;99.90;;;;;;7389833;19;20965;-81
2023/02/16 11:45:58;;;;;;;16.83;11.65;;;10.50;99.90;;;;;;7394995;19;20356;-84
2023/02/16 11:48:27;;;;;;;16.50;11.60;;;10.70;99.90;;;;;;7387883;19;20683;-79
2023/02/16 11:51:10;;;;;;;16.30;11.65;;;10.90;99.90;;;;;;7390386;19;20837;-83
2023/02/16 11:53:50;;;;;;;16.23;12.02;;;10.90;99.90;;;;;;7404178;19;20341;-82
2023/02/16 11:56:24;;;;;;;16.05;11.73;;;11.20;99.90;;;;;;7381869;19;20321;-81
2023/02/16 11:59:25;;;;;;;16.60;11.43;;;11.20;99.90;;;;;;7286443;19;2004271;-77
2023/02/16 12:01:59;;;;;;;17.85;11.65;;;11.20;99.90;;;;;;7275849;19;2004393;-81
2023/02/16 12:04:56;;;;;;;17.10;12.00;;;11.00;99.90;;;;;;7385439;19;20348;-78
2023/02/16 12:07:51;;;;;;;17.50;11.80;;;11.10;99.90;;;;;;7265957;19;2004351;-81
2023/02/16 12:10:37;;;;;;;17.42;11.90;;;11.30;99.90;;;;;;7369618;19;20316;-86
2023/02/16 12:13:19;;;;;;;16.70;11.90;;;11.50;99.90;;;;;;7281865;19;2004620;-83
2023/02/16 12:16:16;;;;;;;15.00;11.32;;;11.70;99.90;;;;;;7396105;19;20341;-85
2023/02/16 12:19:20;;;;;;;16.45;11.00;;;11.90;99.90;;;;;;7233490;19;2004151;-78
2023/02/16 12:22:02;;;;;;;19.93;12.10;;;11.70;99.90;;;;;;7288250;19;2004431;-80
2023/02/16 12:25:04;;;;;;;15.32;11.55;;;11.70;99.90;;;;;;7284630;19;2008414;-82
2023/02/16 12:27:38;;;;;;;15.68;10.93;;;11.90;99.90;;;;;;7284123;19;2004427;-81
2023/02/16 12:30:10;;;;;;;18.60;11.33;;;11.80;99.90;;;;;;7396206;19;20320;-80
2023/02/16 12:33:06;;;;;;;20.17;11.88;;;11.80;99.90;;;;;;7373962;19;20365;-79
2023/02/16 12:35:46;;;;;;;15.57;10.52;;;11.80;99.90;;;;;;7249374;19;2004995;-83
2023/02/16 12:38:17;;;;;;;16.92;11.30;;;11.90;99.90;;;;;;7389406;19;20321;-81
2023/02/16 12:41:08;;;;;;;19.60;10.73;;;11.90;99.90;;;;;;7393658;19;20338;-79
2023/02/16 12:43:54;;;;;;;18.35;11.45;;;11.90;99.90;;;;;;7294061;19;2004238;-82
2023/02/16 12:46:22;;;;;;;17.48;11.13;;;12.00;99.90;;;;;;7289639;19;2004501;-80
2023/02/16 12:48:55;;;;;;;13.38;10.40;;;12.00;99.90;;;;;;7395162;19;20349;-83
2023/02/16 12:51:25;;;;;;;15.45;10.63;;;12.00;99.90;;;;;;7301417;19;2004597;-80
2023/02/16 12:53:56;;;;;;;15.57;10.15;;;12.00;99.90;;;;;;7404939;19;20907;-84
2023/02/16 12:56:33;;;;;;;15.43;10.68;;;12.20;99.90;;;;;;7399989;19;20348;-80
2023/02/16 12:59:21;;;;;;;15.70;11.40;;;12.10;99.90;;;;;;7360611;19;20370;-79
2023/02/16 13:01:47;;;;;;;14.00;11.23;;;12.10;99.90;;;;;;7400522;19;20337;-80
2023/02/16 13:04:22;;;;;;;16.17;11.40;;;12.00;99.90;;;;;;7409313;19;20343;-83
2023/02/16 13:06:54;;;;;;;18.05;11.60;;;12.10;99.90;;;;;;7400468;19;20403;-80
2023/02/16 13:09:35;;;;;;;16.70;10.63;;;11.80;99.90;;;;;;7304461;19;2004422;-80
2023/02/16 13:12:10;;;;;;;13.93;10.27;;;11.90;99.90;;;;;;7412019;19;20317;-81
2023/02/16 13:14:40;;;;;;;15.68;10.70;;;12.00;99.90;;;;;;7401427;19;20348;-80
2023/02/16 13:17:10;;;;;;;18.23;10.93;;;12.00;99.90;;;;;;7411345;19;20336;-82
2023/02/16 13:19:36;;;;;;;16.00;10.55;;;12.10;99.90;;;;;;7412842;19;20366;-80
2023/02/16 13:22:40;;;;;;;15.30;10.35;;;12.20;99.90;;;;;;7406345;19;20328;-78
2023/02/16 13:25:12;;;;;;;16.27;10.90;;;12.30;99.90;;;;;;7302100;19;2004370;-80
2023/02/16 13:28:05;;;;;;;14.02;9.80;;;12.00;99.90;;;;;;7410468;19;20327;-78
2023/02/16 13:30:41;;;;;;;14.48;10.18;;;11.80;99.90;;;;;;7311054;19;2004329;-85
2023/02/16 13:33:17;;;;;;;16.30;9.98;;;11.70;99.90;;;;;;7412805;19;20368;-83
2023/02/16 13:36:09;;;;;;;18.93;10.50;;;11.70;99.90;;;;;;7403971;19;20320;-82
2023/02/16 13:38:42;;;;;;;15.95;9.38;;;11.60;99.90;;;;;;7309433;19;2004399;-80
2023/02/16 13:41:50;;;;;;;16.63;10.60;;;11.70;99.90;;;;;;7408373;19;20328;-83
2023/02/16 13:44:21;;;;;;;13.63;9.93;;;11.60;99.90;;;;;;7301642;19;2004725;-80
2023/02/16 13:46:52;;;;;;;13.07;9.23;;;11.50;99.90;;;;;;7411662;19;20360;-83
2023/02/16 13:49:37;;;;;;;14.60;9.90;;;11.60;99.90;;;;;;7407545;19;20316;-82
2023/02/16 13:52:03;;;;;;;17.23;10.43;;;11.50;99.90;;;;;;7311082;19;2004295;-84
2023/02/16 13:54:34;;;;;;;18.80;11.43;;;11.60;99.90;;;;;;7412305;19;20320;-84
2023/02/16 13:57:03;;;;;;;18.40;12.30;;;11.70;99.90;;;;;;7409591;19;20353;-79
2023/02/16 13:59:28;;;;;;;25.45;15.55;;;11.80;99.90;;;;;;7414108;19;20389;-87
2023/02/16 14:01:55;;;;;;;22.70;12.90;;;11.90;99.90;;;;;;7413499;19;20346;-85
2023/02/16 14:04:21;;;;;;;13.50;10.45;;;12.10;99.90;;;;;;7416188;19;21019;-80
2023/02/16 14:06:49;;;;;;;16.38;11.52;;;12.20;99.90;;;;;;7416006;19;20329;-81
2023/02/16 14:09:15;;;;;;;14.93;9.32;;;12.30;99.90;;;;;;7413350;19;20309;-80
2023/02/16 14:11:51;;;;;;;14.27;9.70;;;12.30;99.90;;;;;;7409940;19;20352;-82
2023/02/16 14:14:41;;;;;;;12.97;9.33;;;12.30;99.90;;;;;;7414972;19;20336;-82
2023/02/16 14:17:21;;;;;;;15.30;9.65;;;12.20;99.90;;;;;;7308311;19;2005919;-80
2023/02/16 14:19:58;;;;;;;12.63;8.80;;;12.10;99.90;;;;;;7405174;19;20292;-84
2023/02/16 14:22:47;;;;;;;14.75;9.50;;;12.10;99.90;;;;;;7308920;19;2004728;-80
2023/02/16 14:25:22;;;;;;;12.38;8.75;;;12.00;99.90;;;;;;7399282;19;20355;-80
2023/02/16 14:27:52;;;;;;;12.10;8.88;;;11.90;99.90;;;;;;7408269;19;20332;-78